sensor_id;sensor_type;location;lat;lon;timestamp;pressure;altitude;pressure_sealevel;temperature;humidity
38038;BME280;23843;51.320;12.340;2024-03-02T00:00:07;99245.69;;;8.67;66.07
38038;BME280;23843;51.320;12.340;2024-03-02T00:02:53;99249.31;;;8.68;66.26
38038;BME280;23843;51.320;12.340;2024-03-02T00:05:20;99241.50;;;8.65;65.83
38038;BME280;23843;51.320;12.340;2024-03-02T00:07:52;99239.81;;;8.64;66.04
38038;BME280;23843;51.320;12.340;2024-03-02T00:10:20;99240.06;;;8.62;65.98
38038;BME280;23843;51.320;12.340;2024-03-02T00:12:48;99236.13;;;8.58;66.02
38038;BME280;23843;51.320;12.340;2024-03-02T00:15:41;99237.44;;;8.55;65.99
38038;BME280;23843;51.320;12.340;2024-03-02T00:18:30;99235.81;;;8.54;66.24
38038;BME280;23843;51.320;12.340;2024-03-02T00:21:15;99235.19;;;8.52;66.17
38038;BME280;23843;51.320;12.340;2024-03-02T00:24:04;99238.69;;;8.48;66.56
38038;BME280;23843;51.320;12.340;2024-03-02T00:26:54;99241.13;;;8.44;66.54
38038;BME280;23843;51.320;12.340;2024-03-02T00:29:22;99238.63;;;8.43;66.83
38038;BME280;23843;51.320;12.340;2024-03-02T00:31:47;99237.28;;;8.45;66.89
38038;BME280;23843;51.320;12.340;2024-03-02T00:34:13;99236.53;;;8.50;66.23
38038;BME280;23843;51.320;12.340;2024-03-02T00:36:39;99231.34;;;8.53;66.44
38038;BME280;23843;51.320;12.340;2024-03-02T00:39:05;99225.88;;;8.58;66.73
38038;BME280;23843;51.320;12.340;2024-03-02T00:41:31;99228.16;;;8.62;66.61
38038;BME280;23843;51.320;12.340;2024-03-02T00:43:58;99221.03;;;8.66;66.57
38038;BME280;23843;51.320;12.340;2024-03-02T00:46:27;99215.00;;;8.69;66.33
38038;BME280;23843;51.320;12.340;2024-03-02T00:48:54;99220.25;;;8.70;66.39
38038;BME280;23843;51.320;12.340;2024-03-02T00:51:21;99220.25;;;8.70;66.40
38038;BME280;23843;51.320;12.340;2024-03-02T00:53:47;99214.47;;;8.72;66.42
38038;BME280;23843;51.320;12.340;2024-03-02T00:56:13;99216.41;;;8.71;66.37
38038;BME280;23843;51.320;12.340;2024-03-02T00:58:59;99220.00;;;8.72;66.58
38038;BME280;23843;51.320;12.340;2024-03-02T01:01:26;99220.00;;;8.72;66.37
38038;BME280;23843;51.320;12.340;2024-03-02T01:03:52;99218.09;;;8.72;66.20
38038;BME280;23843;51.320;12.340;2024-03-02T01:06:18;99217.78;;;8.69;66.72
38038;BME280;23843;51.320;12.340;2024-03-02T01:08:44;99224.03;;;8.64;66.32
38038;BME280;23843;51.320;12.340;2024-03-02T01:11:10;99210.44;;;8.63;66.55
38038;BME280;23843;51.320;12.340;2024-03-02T01:13:36;99215.13;;;8.62;66.89
38038;BME280;23843;51.320;12.340;2024-03-02T01:16:02;99215.41;;;8.61;66.85
38038;BME280;23843;51.320;12.340;2024-03-02T01:18:29;99207.94;;;8.61;66.86
38038;BME280;23843;51.320;12.340;2024-03-02T01:20:55;99206.28;;;8.60;67.12
38038;BME280;23843;51.320;12.340;2024-03-02T01:23:21;99212.06;;;8.58;66.92
38038;BME280;23843;51.320;12.340;2024-03-02T01:25:47;99204.00;;;8.57;66.50
38038;BME280;23843;51.320;12.340;2024-03-02T01:28:13;99210.59;;;8.56;66.70
38038;BME280;23843;51.320;12.340;2024-03-02T01:30:38;99212.53;;;8.55;66.59
38038;BME280;23843;51.320;12.340;2024-03-02T01:33:04;99218.34;;;8.54;66.65
38038;BME280;23843;51.320;12.340;2024-03-02T01:35:31;99216.06;;;8.51;66.94
38038;BME280;23843;51.320;12.340;2024-03-02T01:37:57;99221.00;;;8.49;66.83
38038;BME280;23843;51.320;12.340;2024-03-02T01:40:23;99219.91;;;8.50;67.05
38038;BME280;23843;51.320;12.340;2024-03-02T01:42:49;99211.69;;;8.55;66.63
38038;BME280;23843;51.320;12.340;2024-03-02T01:45:35;99220.34;;;8.58;66.97
38038;BME280;23843;51.320;12.340;2024-03-02T01:48:01;99225.66;;;8.60;66.85
38038;BME280;23843;51.320;12.340;2024-03-02T01:50:28;99219.03;;;8.61;66.96
38038;BME280;23843;51.320;12.340;2024-03-02T01:52:55;99215.50;;;8.66;67.00
38038;BME280;23843;51.320;12.340;2024-03-02T01:55:21;99212.13;;;8.64;66.44
38038;BME280;23843;51.320;12.340;2024-03-02T01:57:46;99215.13;;;8.62;66.62
38038;BME280;23843;51.320;12.340;2024-03-02T02:00:12;99213.13;;;8.57;66.55
38038;BME280;23843;51.320;12.340;2024-03-02T02:02:38;99213.91;;;8.53;67.30
38038;BME280;23843;51.320;12.340;2024-03-02T02:05:04;99213.78;;;8.48;67.00
38038;BME280;23843;51.320;12.340;2024-03-02T02:07:30;99215.16;;;8.45;67.71
38038;BME280;23843;51.320;12.340;2024-03-02T02:09:57;99215.38;;;8.44;67.53
38038;BME280;23843;51.320;12.340;2024-03-02T02:12:24;99218.63;;;8.41;67.18
38038;BME280;23843;51.320;12.340;2024-03-02T02:14:49;99212.78;;;8.37;67.20
38038;BME280;23843;51.320;12.340;2024-03-02T02:17:15;99219.16;;;8.38;67.09
38038;BME280;23843;51.320;12.340;2024-03-02T02:19:42;99218.63;;;8.41;67.43
38038;BME280;23843;51.320;12.340;2024-03-02T02:22:09;99209.59;;;8.45;67.35
38038;BME280;23843;51.320;12.340;2024-03-02T02:24:34;99212.47;;;8.50;67.17
38038;BME280;23843;51.320;12.340;2024-03-02T02:27:00;99197.84;;;8.55;66.91
38038;BME280;23843;51.320;12.340;2024-03-02T02:29:27;99200.97;;;8.58;66.84
38038;BME280;23843;51.320;12.340;2024-03-02T02:32:12;99204.66;;;8.64;67.24
38038;BME280;23843;51.320;12.340;2024-03-02T02:34:38;99206.09;;;8.67;66.78
38038;BME280;23843;51.320;12.340;2024-03-02T02:37:04;99202.00;;;8.69;67.21
38038;BME280;23843;51.320;12.340;2024-03-02T02:39:31;99202.56;;;8.71;67.20
38038;BME280;23843;51.320;12.340;2024-03-02T02:41:57;99205.34;;;8.71;67.35
38038;BME280;23843;51.320;12.340;2024-03-02T02:44:22;99208.69;;;8.73;67.25
38038;BME280;23843;51.320;12.340;2024-03-02T02:46:48;99199.91;;;8.76;66.91
38038;BME280;23843;51.320;12.340;2024-03-02T02:49:13;99201.06;;;8.80;66.78
38038;BME280;23843;51.320;12.340;2024-03-02T02:51:39;99204.41;;;8.82;67.12
38038;BME280;23843;51.320;12.340;2024-03-02T02:54:05;99208.59;;;8.85;66.72
38038;BME280;23843;51.320;12.340;2024-03-02T02:56:32;99203.06;;;8.85;66.66
38038;BME280;23843;51.320;12.340;2024-03-02T02:58:57;99205.00;;;8.84;66.66
38038;BME280;23843;51.320;12.340;2024-03-02T03:01:23;99200.56;;;8.83;67.03
38038;BME280;23843;51.320;12.340;2024-03-02T03:03:49;99203.91;;;8.85;66.92
38038;BME280;23843;51.320;12.340;2024-03-02T03:06:15;99198.34;;;8.85;67.06
38038;BME280;23843;51.320;12.340;2024-03-02T03:08:41;99197.28;;;8.86;67.09
38038;BME280;23843;51.320;12.340;2024-03-02T03:11:06;99191.97;;;8.85;66.95
38038;BME280;23843;51.320;12.340;2024-03-02T03:13:34;99191.97;;;8.85;66.79
38038;BME280;23843;51.320;12.340;2024-03-02T03:16:00;99195.03;;;8.83;67.09
38038;BME280;23843;51.320;12.340;2024-03-02T03:18:45;99195.88;;;8.84;66.74
38038;BME280;23843;51.320;12.340;2024-03-02T03:21:31;99195.03;;;8.83;67.22
38038;BME280;23843;51.320;12.340;2024-03-02T03:23:56;99202.22;;;8.84;67.22
38038;BME280;23843;51.320;12.340;2024-03-02T03:26:22;99203.06;;;8.85;67.04
38038;BME280;23843;51.320;12.340;2024-03-02T03:28:49;99200.88;;;8.87;67.26
38038;BME280;23843;51.320;12.340;2024-03-02T03:31:15;99207.25;;;8.87;66.55
38038;BME280;23843;51.320;12.340;2024-03-02T03:33:40;99205.09;;;8.89;67.22
38038;BME280;23843;51.320;12.340;2024-03-02T03:36:06;99204.84;;;8.91;66.62
38038;BME280;23843;51.320;12.340;2024-03-02T03:38:32;99209.03;;;8.93;66.92
38038;BME280;23843;51.320;12.340;2024-03-02T03:40:58;99211.78;;;8.93;66.74
38038;BME280;23843;51.320;12.340;2024-03-02T03:43:23;99216.47;;;8.93;67.02
38038;BME280;23843;51.320;12.340;2024-03-02T03:45:50;99216.25;;;8.94;67.08
38038;BME280;23843;51.320;12.340;2024-03-02T03:48:17;99222.88;;;8.93;66.67
38038;BME280;23843;51.320;12.340;2024-03-02T03:50:43;99226.72;;;8.92;67.10
38038;BME280;23843;51.320;12.340;2024-03-02T03:53:09;99236.41;;;8.90;67.16
38038;BME280;23843;51.320;12.340;2024-03-02T03:55:34;99228.34;;;8.88;66.99
38038;BME280;23843;51.320;12.340;2024-03-02T03:58:00;99228.34;;;8.88;66.50
38038;BME280;23843;51.320;12.340;2024-03-02T04:00:26;99228.34;;;8.88;66.83
38038;BME280;23843;51.320;12.340;2024-03-02T04:02:54;99228.34;;;8.88;66.87
38038;BME280;23843;51.320;12.340;2024-03-02T04:05:20;99231.34;;;8.87;67.24
38038;BME280;23843;51.320;12.340;2024-03-02T04:08:05;99226.06;;;8.85;66.91
38038;BME280;23843;51.320;12.340;2024-03-02T04:10:31;99227.75;;;8.86;67.20
38038;BME280;23843;51.320;12.340;2024-03-02T04:12:57;99229.66;;;8.86;67.16
38038;BME280;23843;51.320;12.340;2024-03-02T04:15:22;99231.59;;;8.85;67.19
38038;BME280;23843;51.320;12.340;2024-03-02T04:17:48;99235.81;;;8.88;66.95
38038;BME280;23843;51.320;12.340;2024-03-02T04:20:15;99230.56;;;8.91;67.01
38038;BME280;23843;51.320;12.340;2024-03-02T04:22:41;99232.25;;;8.92;66.87
38038;BME280;23843;51.320;12.340;2024-03-02T04:25:07;99231.19;;;8.93;66.80
38038;BME280;23843;51.320;12.340;2024-03-02T04:27:33;99233.94;;;8.93;66.79
38038;BME280;23843;51.320;12.340;2024-03-02T04:29:59;99240.56;;;8.92;66.91
38038;BME280;23843;51.320;12.340;2024-03-02T04:32:24;99242.78;;;8.90;66.74
38038;BME280;23843;51.320;12.340;2024-03-02T04:34:50;99247.47;;;8.90;67.06
38038;BME280;23843;51.320;12.340;2024-03-02T04:37:17;99251.66;;;8.92;66.80
38038;BME280;23843;51.320;12.340;2024-03-02T04:39:43;99258.28;;;8.91;67.26
38038;BME280;23843;51.320;12.340;2024-03-02T04:42:09;99257.34;;;8.86;67.09
38038;BME280;23843;51.320;12.340;2024-03-02T04:44:34;99259.56;;;8.84;67.11
38038;BME280;23843;51.320;12.340;2024-03-02T04:47:00;99260.66;;;8.83;66.70
38038;BME280;23843;51.320;12.340;2024-03-02T04:49:28;99271.44;;;8.84;66.77
38038;BME280;23843;51.320;12.340;2024-03-02T04:51:53;99255.13;;;8.83;67.29
38038;BME280;23843;51.320;12.340;2024-03-02T04:54:40;99262.56;;;8.82;67.25
38038;BME280;23843;51.320;12.340;2024-03-02T04:57:06;99262.56;;;8.82;67.01
38038;BME280;23843;51.320;12.340;2024-03-02T04:59:31;99265.91;;;8.84;67.35
38038;BME280;23843;51.320;12.340;2024-03-02T05:01:57;99265.44;;;8.87;66.78
38038;BME280;23843;51.320;12.340;2024-03-02T05:04:23;99260.13;;;8.86;66.78
38038;BME280;23843;51.320;12.340;2024-03-02T05:06:48;99254.59;;;8.86;67.20
38038;BME280;23843;51.320;12.340;2024-03-02T05:09:14;99262.06;;;8.85;66.91
38038;BME280;23843;51.320;12.340;2024-03-02T05:11:42;99263.16;;;8.84;67.15
38038;BME280;23843;51.320;12.340;2024-03-02T05:14:07;99259.81;;;8.82;67.19
38038;BME280;23843;51.320;12.340;2024-03-02T05:16:33;99262.47;;;8.77;67.22
38038;BME280;23843;51.320;12.340;2024-03-02T05:18:59;99267.94;;;8.72;67.30
38038;BME280;23843;51.320;12.340;2024-03-02T05:21:25;99273.38;;;8.67;67.11
38038;BME280;23843;51.320;12.340;2024-03-02T05:23:50;99279.41;;;8.64;67.07
38038;BME280;23843;51.320;12.340;2024-03-02T05:26:16;99274.38;;;8.61;67.28
38038;BME280;23843;51.320;12.340;2024-03-02T05:28:43;99274.97;;;8.63;66.96
38038;BME280;23843;51.320;12.340;2024-03-02T05:31:10;99271.09;;;8.64;67.14
38038;BME280;23843;51.320;12.340;2024-03-02T05:33:37;99273.38;;;8.67;67.07
38038;BME280;23843;51.320;12.340;2024-03-02T05:36:03;99283.09;;;8.70;67.69
38038;BME280;23843;51.320;12.340;2024-03-02T05:38:29;99282.03;;;8.71;67.35
38038;BME280;23843;51.320;12.340;2024-03-02T05:41:14;99284.31;;;8.74;67.27
38038;BME280;23843;51.320;12.340;2024-03-02T05:43:40;99287.91;;;8.74;67.41
38038;BME280;23843;51.320;12.340;2024-03-02T05:46:07;99277.69;;;8.75;66.87
38038;BME280;23843;51.320;12.340;2024-03-02T05:48:33;99289.31;;;8.77;67.39
38038;BME280;23843;51.320;12.340;2024-03-02T05:50:58;99293.53;;;8.79;67.32
38038;BME280;23843;51.320;12.340;2024-03-02T05:53:24;99286.66;;;8.82;67.33
38038;BME280;23843;51.320;12.340;2024-03-02T05:55:50;99290.84;;;8.84;67.16
38038;BME280;23843;51.320;12.340;2024-03-02T05:58:15;99290.84;;;8.84;67.09
38038;BME280;23843;51.320;12.340;2024-03-02T06:00:41;99291.97;;;8.83;67.37
38038;BME280;23843;51.320;12.340;2024-03-02T06:03:08;99292.19;;;8.82;67.40
38038;BME280;23843;51.320;12.340;2024-03-02T06:05:34;99301.34;;;8.82;67.18
38038;BME280;23843;51.320;12.340;2024-03-02T06:08:00;99302.44;;;8.81;66.92
38038;BME280;23843;51.320;12.340;2024-03-02T06:10:26;99313.00;;;8.84;66.90
38038;BME280;23843;51.320;12.340;2024-03-02T06:12:51;99316.28;;;8.81;67.13
38038;BME280;23843;51.320;12.340;2024-03-02T06:15:17;99315.34;;;8.76;67.11
38038;BME280;23843;51.320;12.340;2024-03-02T06:17:43;99318.84;;;8.71;67.41
38038;BME280;23843;51.320;12.340;2024-03-02T06:20:11;99324.41;;;8.71;67.55
38038;BME280;23843;51.320;12.340;2024-03-02T06:22:37;99325.00;;;8.73;67.65
38038;BME280;23843;51.320;12.340;2024-03-02T06:25:03;99323.91;;;8.74;67.49
38038;BME280;23843;51.320;12.340;2024-03-02T06:27:48;99327.00;;;8.78;67.24
38038;BME280;23843;51.320;12.340;2024-03-02T06:30:34;99325.06;;;8.78;67.63
38038;BME280;23843;51.320;12.340;2024-03-02T06:33:19;99322.91;;;8.80;67.02
38038;BME280;23843;51.320;12.340;2024-03-02T06:35:46;99324.84;;;8.80;67.33
38038;BME280;23843;51.320;12.340;2024-03-02T06:38:12;99322.31;;;8.78;67.53
38038;BME280;23843;51.320;12.340;2024-03-02T06:40:38;99333.31;;;8.73;67.29
38038;BME280;23843;51.320;12.340;2024-03-02T06:43:04;99322.97;;;8.69;67.31
38038;BME280;23843;51.320;12.340;2024-03-02T06:45:29;99319.38;;;8.68;67.58
38038;BME280;23843;51.320;12.340;2024-03-02T06:47:56;99317.16;;;8.70;67.93
38038;BME280;23843;51.320;12.340;2024-03-02T06:50:22;99325.06;;;8.78;67.60
38038;BME280;23843;51.320;12.340;2024-03-02T06:52:49;99324.06;;;8.84;67.68
38038;BME280;23843;51.320;12.340;2024-03-02T06:55:15;99320.56;;;8.89;67.87
38038;BME280;23843;51.320;12.340;2024-03-02T06:57:40;99321.75;;;8.93;67.31
38038;BME280;23843;51.320;12.340;2024-03-02T07:00:07;99313.78;;;8.96;67.34
38038;BME280;23843;51.320;12.340;2024-03-02T07:02:33;99317.72;;;9.01;67.46
38038;BME280;23843;51.320;12.340;2024-03-02T07:04:58;99318.06;;;9.04;67.67
38038;BME280;23843;51.320;12.340;2024-03-02T07:07:24;99313.84;;;9.02;67.26
38038;BME280;23843;51.320;12.340;2024-03-02T07:09:51;99322.66;;;8.98;67.15
38038;BME280;23843;51.320;12.340;2024-03-02T07:12:17;99321.00;;;8.97;67.34
38038;BME280;23843;51.320;12.340;2024-03-02T07:14:42;99318.47;;;8.96;67.25
38038;BME280;23843;51.320;12.340;2024-03-02T07:17:28;99317.41;;;8.97;67.48
38038;BME280;23843;51.320;12.340;2024-03-02T07:20:13;99316.56;;;8.96;67.99
38038;BME280;23843;51.320;12.340;2024-03-02T07:22:39;99317.63;;;8.95;67.68
38038;BME280;23843;51.320;12.340;2024-03-02T07:25:06;99330.03;;;8.93;68.03
38038;BME280;23843;51.320;12.340;2024-03-02T07:27:32;99324.50;;;8.93;67.44
38038;BME280;23843;51.320;12.340;2024-03-02T07:29:58;99332.81;;;8.93;67.74
38038;BME280;23843;51.320;12.340;2024-03-02T07:32:23;99341.13;;;8.93;67.96
38038;BME280;23843;51.320;12.340;2024-03-02T07:34:49;99346.91;;;8.91;67.68
38038;BME280;23843;51.320;12.340;2024-03-02T07:37:15;99340.28;;;8.92;67.99
38038;BME280;23843;51.320;12.340;2024-03-02T07:39:41;99343.91;;;8.93;68.06
38038;BME280;23843;51.320;12.340;2024-03-02T07:42:08;99349.19;;;8.94;68.06
38038;BME280;23843;51.320;12.340;2024-03-02T07:44:34;99355.34;;;8.96;67.96
38038;BME280;23843;51.320;12.340;2024-03-02T07:46:59;99348.94;;;8.96;68.11
38038;BME280;23843;51.320;12.340;2024-03-02T07:49:25;99349.56;;;8.98;68.11
38038;BME280;23843;51.320;12.340;2024-03-02T07:51:51;99359.28;;;9.01;68.08
38038;BME280;23843;51.320;12.340;2024-03-02T07:54:17;99350.22;;;9.05;67.77
38038;BME280;23843;51.320;12.340;2024-03-02T07:56:43;99353.31;;;9.09;68.04
38038;BME280;23843;51.320;12.340;2024-03-02T07:59:10;99348.97;;;9.13;67.83
38038;BME280;23843;51.320;12.340;2024-03-02T08:01:36;99357.38;;;9.18;67.94
38038;BME280;23843;51.320;12.340;2024-03-02T08:04:02;99361.31;;;9.22;67.88
38038;BME280;23843;51.320;12.340;2024-03-02T08:06:28;99359.38;;;9.22;67.96
38038;BME280;23843;51.320;12.340;2024-03-02T08:08:54;99361.41;;;9.27;68.16
38038;BME280;23843;51.320;12.340;2024-03-02T08:11:20;99366.19;;;9.31;68.00
38038;BME280;23843;51.320;12.340;2024-03-02T08:13:45;99357.63;;;9.33;67.69
38038;BME280;23843;51.320;12.340;2024-03-02T08:16:13;99357.38;;;9.34;67.77
38038;BME280;23843;51.320;12.340;2024-03-02T08:18:39;99358.78;;;9.37;67.97
38038;BME280;23843;51.320;12.340;2024-03-02T08:21:04;99351.66;;;9.41;68.03
38038;BME280;23843;51.320;12.340;2024-03-02T08:23:30;99360.06;;;9.46;68.09
38038;BME280;23843;51.320;12.340;2024-03-02T08:25:56;99360.13;;;9.51;67.78
38038;BME280;23843;51.320;12.340;2024-03-02T08:28:22;99362.47;;;9.59;67.84
38038;BME280;23843;51.320;12.340;2024-03-02T08:30:48;99358.44;;;9.67;67.55
38038;BME280;23843;51.320;12.340;2024-03-02T08:33:15;99357.09;;;9.69;67.76
38038;BME280;23843;51.320;12.340;2024-03-02T08:35:41;99367.66;;;9.72;67.43
38038;BME280;23843;51.320;12.340;2024-03-02T08:38:07;99370.44;;;9.72;67.68
38038;BME280;23843;51.320;12.340;2024-03-02T08:40:33;99376.56;;;9.74;67.79
38038;BME280;23843;51.320;12.340;2024-03-02T08:42:58;99377.66;;;9.73;67.71
38038;BME280;23843;51.320;12.340;2024-03-02T08:45:24;99378.25;;;9.75;67.78
38038;BME280;23843;51.320;12.340;2024-03-02T08:47:54;99379.69;;;9.78;67.67
38038;BME280;23843;51.320;12.340;2024-03-02T08:50:32;99392.53;;;9.84;67.71
38038;BME280;23843;51.320;12.340;2024-03-02T08:53:18;99380.72;;;9.94;67.86
38038;BME280;23843;51.320;12.340;2024-03-02T08:55:44;99390.84;;;10.00;67.93
38038;BME280;23843;51.320;12.340;2024-03-02T08:58:09;99388.72;;;10.07;67.92
38038;BME280;23843;51.320;12.340;2024-03-02T09:00:37;99386.84;;;10.12;67.84
38038;BME280;23843;51.320;12.340;2024-03-02T09:03:03;99380.53;;;10.17;67.83
38038;BME280;23843;51.320;12.340;2024-03-02T09:05:30;99384.25;;;10.23;67.91
38038;BME280;23843;51.320;12.340;2024-03-02T09:07:56;99388.50;;;10.30;68.26
38038;BME280;23843;51.320;12.340;2024-03-02T09:10:21;99394.44;;;10.39;67.78
38038;BME280;23843;51.320;12.340;2024-03-02T09:12:47;99395.09;;;10.46;67.80
38038;BME280;23843;51.320;12.340;2024-03-02T09:15:13;99391.84;;;10.54;67.89
38038;BME280;23843;51.320;12.340;2024-03-02T09:17:38;99395.28;;;10.61;67.60
38038;BME280;23843;51.320;12.340;2024-03-02T09:20:05;99395.06;;;10.68;67.92
38038;BME280;23843;51.320;12.340;2024-03-02T09:22:32;99397.84;;;10.68;67.91
38038;BME280;23843;51.320;12.340;2024-03-02T09:24:58;99398.44;;;10.70;67.71
38038;BME280;23843;51.320;12.340;2024-03-02T09:27:24;99406.25;;;10.73;67.94
38038;BME280;23843;51.320;12.340;2024-03-02T09:29:50;99404.63;;;10.77;68.10
38038;BME280;23843;51.320;12.340;2024-03-02T09:32:16;99413.56;;;10.79;68.00
38038;BME280;23843;51.320;12.340;2024-03-02T09:34:41;99414.66;;;10.78;67.76
38038;BME280;23843;51.320;12.340;2024-03-02T09:37:07;99412.38;;;10.75;68.03
38038;BME280;23843;51.320;12.340;2024-03-02T09:39:54;99410.72;;;10.74;68.23
38038;BME280;23843;51.320;12.340;2024-03-02T09:42:20;99409.59;;;10.75;67.88
38038;BME280;23843;51.320;12.340;2024-03-02T09:44:46;99413.81;;;10.77;68.20
38038;BME280;23843;51.320;12.340;2024-03-02T09:47:13;99413.59;;;10.84;67.89
38038;BME280;23843;51.320;12.340;2024-03-02T09:49:39;99418.06;;;10.85;67.92
38038;BME280;23843;51.320;12.340;2024-03-02T09:52:06;99421.72;;;10.90;67.63
38038;BME280;23843;51.320;12.340;2024-03-02T09:54:32;99416.25;;;10.96;67.50
38038;BME280;23843;51.320;12.340;2024-03-02T09:56:59;99415.47;;;11.00;67.56
38038;BME280;23843;51.320;12.340;2024-03-02T09:59:25;99416.59;;;11.04;67.47
38038;BME280;23843;51.320;12.340;2024-03-02T10:01:58;99425.53;;;11.06;67.62
38038;BME280;23843;51.320;12.340;2024-03-02T10:04:25;99416.38;;;11.11;67.96
38038;BME280;23843;51.320;12.340;2024-03-02T10:06:51;99422.28;;;11.14;67.97
38038;BME280;23843;51.320;12.340;2024-03-02T10:09:27;99417.09;;;11.23;67.35
38038;BME280;23843;51.320;12.340;2024-03-02T10:11:53;99416.63;;;11.31;67.33
38038;BME280;23843;51.320;12.340;2024-03-02T10:14:20;99414.16;;;11.40;67.70
38038;BME280;23843;51.320;12.340;2024-03-02T10:16:46;99414.59;;;11.53;67.19
38038;BME280;23843;51.320;12.340;2024-03-02T10:19:18;99409.44;;;11.67;67.75
38038;BME280;23843;51.320;12.340;2024-03-02T10:21:45;99405.41;;;11.85;67.01
38038;BME280;23843;51.320;12.340;2024-03-02T10:24:11;99403.31;;;12.07;67.23
38038;BME280;23843;51.320;12.340;2024-03-02T10:26:56;99397.94;;;12.37;66.77
38038;BME280;23843;51.320;12.340;2024-03-02T10:29:24;99396.41;;;12.67;67.21
38038;BME280;23843;51.320;12.340;2024-03-02T10:31:49;99390.94;;;12.92;66.53
38038;BME280;23843;51.320;12.340;2024-03-02T10:34:15;99387.38;;;13.17;66.40
38038;BME280;23843;51.320;12.340;2024-03-02T10:36:42;99387.97;;;13.39;65.75
38038;BME280;23843;51.320;12.340;2024-03-02T10:39:08;99387.13;;;13.59;65.44
38038;BME280;23843;51.320;12.340;2024-03-02T10:41:35;99388.25;;;13.73;65.14
38038;BME280;23843;51.320;12.340;2024-03-02T10:44:02;99385.19;;;13.80;64.99
38038;BME280;23843;51.320;12.340;2024-03-02T10:46:31;99381.00;;;13.87;65.13
38038;BME280;23843;51.320;12.340;2024-03-02T10:48:57;99378.47;;;13.91;64.70
38038;BME280;23843;51.320;12.340;2024-03-02T10:51:23;99378.44;;;13.96;64.50
38038;BME280;23843;51.320;12.340;2024-03-02T10:53:49;99376.78;;;14.00;64.50
38038;BME280;23843;51.320;12.340;2024-03-02T10:56:21;99369.22;;;14.00;63.68
38038;BME280;23843;51.320;12.340;2024-03-02T10:58:47;99377.03;;;14.03;63.55
38038;BME280;23843;51.320;12.340;2024-03-02T11:01:17;99379.53;;;14.05;64.36
38038;BME280;23843;51.320;12.340;2024-03-02T11:03:45;99372.28;;;14.04;64.14
38038;BME280;23843;51.320;12.340;2024-03-02T11:06:11;99377.31;;;14.07;64.33
38038;BME280;23843;51.320;12.340;2024-03-02T11:08:40;99367.25;;;14.11;64.42
38038;BME280;23843;51.320;12.340;2024-03-02T11:11:29;99370.03;;;14.16;63.99
38038;BME280;23843;51.320;12.340;2024-03-02T11:14:17;99359.41;;;14.18;64.34
38038;BME280;23843;51.320;12.340;2024-03-02T11:16:46;99358.56;;;14.23;64.04
38038;BME280;23843;51.320;12.340;2024-03-02T11:19:15;99359.94;;;14.25;63.93
38038;BME280;23843;51.320;12.340;2024-03-02T11:21:42;99369.44;;;14.29;64.08
38038;BME280;23843;51.320;12.340;2024-03-02T11:24:30;99360.78;;;14.31;64.20
38038;BME280;23843;51.320;12.340;2024-03-02T11:26:56;99359.91;;;14.35;63.96
38038;BME280;23843;51.320;12.340;2024-03-02T11:29:43;99361.34;;;14.38;63.94
38038;BME280;23843;51.320;12.340;2024-03-02T11:32:14;99358.25;;;14.39;63.80
38038;BME280;23843;51.320;12.340;2024-03-02T11:34:45;99342.88;;;14.42;63.88
38038;BME280;23843;51.320;12.340;2024-03-02T11:37:12;99350.97;;;14.44;63.78
38038;BME280;23843;51.320;12.340;2024-03-02T11:39:39;99340.34;;;14.46;63.71
38038;BME280;23843;51.320;12.340;2024-03-02T11:42:05;99349.81;;;14.50;63.80
38038;BME280;23843;51.320;12.340;2024-03-02T11:44:32;99346.47;;;14.53;63.57
38038;BME280;23843;51.320;12.340;2024-03-02T11:46:58;99336.97;;;14.54;63.14
38038;BME280;23843;51.320;12.340;2024-03-02T11:49:36;99331.66;;;14.52;63.73
38038;BME280;23843;51.320;12.340;2024-03-02T11:52:05;99347.00;;;14.55;63.43
38038;BME280;23843;51.320;12.340;2024-03-02T11:54:32;99339.19;;;14.57;63.55
38038;BME280;23843;51.320;12.340;2024-03-02T11:57:00;99339.13;;;14.62;63.47
38038;BME280;23843;51.320;12.340;2024-03-02T11:59:28;99332.72;;;14.66;63.44
38038;BME280;23843;51.320;12.340;2024-03-02T12:02:15;99337.97;;;14.73;63.52
38038;BME280;23843;51.320;12.340;2024-03-02T12:04:42;99342.97;;;14.76;63.41
38038;BME280;23843;51.320;12.340;2024-03-02T12:07:09;99337.66;;;14.79;63.26
38038;BME280;23843;51.320;12.340;2024-03-02T12:09:35;99323.41;;;14.81;63.27
38038;BME280;23843;51.320;12.340;2024-03-02T12:12:03;99332.91;;;14.80;62.74
38038;BME280;23843;51.320;12.340;2024-03-02T12:14:38;99315.34;;;14.74;62.89
38038;BME280;23843;51.320;12.340;2024-03-02T12:17:04;99318.69;;;14.71;62.91
38038;BME280;23843;51.320;12.340;2024-03-02T12:19:32;99316.44;;;14.73;63.22
38038;BME280;23843;51.320;12.340;2024-03-02T12:21:59;99320.63;;;14.76;62.91
38038;BME280;23843;51.320;12.340;2024-03-02T12:24:28;99314.22;;;14.75;62.94
38038;BME280;23843;51.320;12.340;2024-03-02T12:26:54;99313.38;;;14.75;62.84
38038;BME280;23843;51.320;12.340;2024-03-02T12:29:21;99315.84;;;14.76;63.03
38038;BME280;23843;51.320;12.340;2024-03-02T12:31:48;99302.19;;;14.75;62.62
38038;BME280;23843;51.320;12.340;2024-03-02T12:34:14;99304.44;;;14.73;62.70
38038;BME280;23843;51.320;12.340;2024-03-02T12:36:40;99313.94;;;14.72;62.08
38038;BME280;23843;51.320;12.340;2024-03-02T12:39:06;99319.25;;;14.68;61.56
38038;BME280;23843;51.320;12.340;2024-03-02T12:41:35;99311.47;;;14.65;62.46
38038;BME280;23843;51.320;12.340;2024-03-02T12:44:01;99319.03;;;14.60;61.80
38038;BME280;23843;51.320;12.340;2024-03-02T12:46:28;99315.69;;;14.58;61.85
38038;BME280;23843;51.320;12.340;2024-03-02T12:49:14;99312.06;;;14.57;62.42
38038;BME280;23843;51.320;12.340;2024-03-02T12:52:00;99307.88;;;14.55;61.97
38038;BME280;23843;51.320;12.340;2024-03-02T12:54:42;99300.91;;;14.52;61.51
38038;BME280;23843;51.320;12.340;2024-03-02T12:57:18;99305.38;;;14.53;62.00
38038;BME280;23843;51.320;12.340;2024-03-02T12:59:45;99293.91;;;14.55;61.41
38038;BME280;23843;51.320;12.340;2024-03-02T13:02:17;99298.66;;;14.54;61.61